createdAt,value
2022-10-22T00:01:40.800Z,100058.56
2022-10-22T00:07:52.122Z,100070.81
2022-10-22T00:10:55.171Z,100069.28
2022-10-22T00:13:59.552Z,100069.44
2022-10-22T00:17:02.497Z,100067.66
2022-10-22T00:20:07.300Z,100067.50
2022-10-22T00:23:10.452Z,100066.53
2022-10-22T00:26:13.824Z,100055.41
2022-10-22T00:29:19.914Z,100061.19
2022-10-22T00:32:22.837Z,100050.97
2022-10-22T00:35:25.947Z,100029.91
2022-10-22T00:38:28.956Z,100039.41
2022-10-22T00:41:31.986Z,100033.22
2022-10-22T00:45:26.088Z,100025.91
2022-10-22T00:48:33.304Z,100023.59
2022-10-22T00:51:37.225Z,100022.63
2022-10-22T00:54:41.181Z,100030.47
2022-10-22T00:57:44.801Z,100038.88
2022-10-22T01:00:49.705Z,100046.72
2022-10-22T01:03:53.295Z,100045.91
2022-10-22T01:06:56.277Z,100052.94
2022-10-22T01:10:09.995Z,100067.50
2022-10-22T01:13:26.055Z,100053.75
2022-10-22T01:16:40.522Z,100058.16
2022-10-22T01:19:57.969Z,100059.25
2022-10-22T01:23:14.794Z,100048.63
2022-10-22T01:26:29.426Z,100043.84
2022-10-22T01:29:39.130Z,100039.84
2022-10-22T01:32:46.687Z,100036.59
2022-10-22T01:35:50.159Z,100024.38
2022-10-22T01:38:54.386Z,100020.38
2022-10-22T01:41:58.499Z,100020.91
2022-10-22T01:45:02.770Z,100025.19
2022-10-22T01:49:08.829Z,100016.56
2022-10-22T01:52:25.215Z,100019.28
2022-10-22T01:55:38.991Z,100024.97
2022-10-22T01:58:53.293Z,100034.47
2022-10-22T02:02:07.264Z,100036.38
2022-10-22T02:05:17.972Z,100039.84
2022-10-22T02:08:25.886Z,100038.63
2022-10-22T02:11:28.957Z,100047.28
2022-10-22T02:14:34.123Z,100040.84
2022-10-22T02:17:39.550Z,100033.53
2022-10-22T02:20:43.611Z,100036.13
2022-10-22T02:23:47.206Z,100034.75
2022-10-22T02:26:59.115Z,100027.31
2022-10-22T02:30:06.540Z,100030.06
2022-10-22T02:33:18.231Z,100025.97
2022-10-22T02:36:22.200Z,100016.03
2022-10-22T02:39:26.084Z,100024.44
2022-10-22T02:42:30.490Z,100022.09
2022-10-22T02:45:34.774Z,100025.13
2022-10-22T02:48:39.330Z,100021.81
2022-10-22T02:51:42.659Z,100023.75
2022-10-22T02:54:45.661Z,100026.38
2022-10-22T02:57:48.825Z,100030.78
2022-10-22T03:00:51.812Z,100038.34
2022-10-22T03:03:56.082Z,100047.59
2022-10-22T03:06:59.078Z,100036.41
2022-10-22T03:10:02.089Z,100034.50
2022-10-22T03:13:05.087Z,100023.91
2022-10-22T03:16:08.511Z,100020.63
2022-10-22T03:19:12.883Z,100016.47
2022-10-22T03:22:22.193Z,100015.00
2022-10-22T03:25:27.907Z,100007.00
2022-10-22T03:28:32.218Z,100012.47
2022-10-22T03:31:35.126Z,100013.31
2022-10-22T03:34:39.416Z,100013.59
2022-10-22T03:37:42.882Z,100013.19
2022-10-22T03:40:47.047Z,100023.34
2022-10-22T03:43:52.914Z,100019.09
2022-10-22T03:46:58.709Z,100013.88
2022-10-22T03:50:08.044Z,100017.03
2022-10-22T03:53:11.413Z,100020.47
2022-10-22T03:56:15.157Z,100020.47
2022-10-22T03:59:19.168Z,100017.84
2022-10-22T04:02:22.128Z,100017.72
2022-10-22T04:05:26.537Z,100027.66
2022-10-22T04:08:29.433Z,100024.59
2022-10-22T04:11:32.418Z,100028.72
2022-10-22T04:14:35.718Z,100029.28
2022-10-22T04:17:39.524Z,100035.47
2022-10-22T04:20:43.998Z,100040.72
2022-10-22T04:23:48.640Z,100046.88
2022-10-22T04:26:51.596Z,100050.19
2022-10-22T04:29:54.523Z,100052.09
2022-10-22T04:32:57.446Z,100060.66
2022-10-22T04:36:02.992Z,100052.00
2022-10-22T04:39:07.448Z,100054.31
2022-10-22T04:42:10.646Z,100052.25
2022-10-22T04:45:15.574Z,100054.31
2022-10-22T04:48:20.380Z,100050.47
2022-10-22T04:51:27.297Z,100041.13
2022-10-22T04:54:32.958Z,100049.78
2022-10-22T04:57:36.314Z,100034.78
2022-10-22T05:00:39.307Z,100036.97
2022-10-22T05:03:43.368Z,100037.69
2022-10-22T05:06:48.266Z,100032.56
2022-10-22T05:09:51.264Z,100032.31
2022-10-22T05:12:54.481Z,100030.66
2022-10-22T05:15:57.353Z,100029.69
2022-10-22T05:19:02.029Z,100037.84
2022-10-22T05:22:06.677Z,100045.78
2022-10-22T05:25:12.358Z,100051.28
2022-10-22T05:28:15.272Z,100041.81
2022-10-22T05:31:19.034Z,100049.91
2022-10-22T05:34:22.000Z,100050.63
2022-10-22T05:37:26.365Z,100047.84
2022-10-22T05:40:31.107Z,100050.03
2022-10-22T05:43:34.697Z,100049.06
2022-10-22T05:46:37.742Z,100045.09
2022-10-22T05:49:40.815Z,100049.06
2022-10-22T05:52:45.094Z,100058.16
2022-10-22T05:55:48.031Z,100061.88
2022-10-22T05:58:51.509Z,100070.94
2022-10-22T06:01:54.464Z,100075.19
2022-10-22T06:04:57.413Z,100082.63
2022-10-22T06:08:02.344Z,100081.94
2022-10-22T06:11:06.427Z,100075.19
2022-10-22T06:14:11.068Z,100062.25
2022-10-22T06:17:14.483Z,100062.25
2022-10-22T06:20:17.507Z,100065.00
2022-10-22T06:23:22.007Z,100061.72
2022-10-22T06:26:25.005Z,100068.84
2022-10-22T06:29:28.051Z,100083.44
2022-10-22T06:32:31.515Z,100084.53
2022-10-22T06:35:34.543Z,100090.88
2022-10-22T06:38:39.350Z,100103.63
2022-10-22T06:41:42.337Z,100102.56
2022-10-22T06:44:45.454Z,100100.38
2022-10-22T06:47:48.954Z,100102.69
2022-10-22T06:50:51.884Z,100107.13
2022-10-22T06:53:57.670Z,100103.81
2022-10-22T06:57:00.863Z,100111.25
2022-10-22T07:00:05.190Z,100108.81
2022-10-22T07:03:08.111Z,100104.94
2022-10-22T07:06:14.302Z,100105.09
2022-10-22T07:12:27.153Z,100097.63
2022-10-22T07:15:30.068Z,100100.66
2022-10-22T07:18:35.265Z,100115.13
2022-10-22T07:21:38.565Z,100105.50
2022-10-22T07:24:42.876Z,100107.56
2022-10-22T07:27:46.227Z,100105.09
2022-10-22T07:30:49.627Z,100104.53
2022-10-22T07:33:52.541Z,100105.75
2022-10-22T07:36:57.161Z,100103.38
2022-10-22T07:40:03.802Z,100114.94
2022-10-22T07:43:07.522Z,100116.69
2022-10-22T07:46:10.504Z,100131.84
2022-10-22T07:49:13.419Z,100136.25
2022-10-22T07:52:16.330Z,100143.41
2022-10-22T07:55:20.615Z,100143.94
2022-10-22T07:58:24.678Z,100148.06
2022-10-22T08:01:27.637Z,100134.69
2022-10-22T08:04:30.589Z,100154.38
2022-10-22T08:07:33.721Z,100141.00
2022-10-22T08:10:38.400Z,100149.13
2022-10-22T08:13:45.130Z,100154.88
2022-10-22T08:16:48.445Z,100143.28
2022-10-22T08:19:51.398Z,100148.78
2022-10-22T08:22:54.353Z,100147.13
2022-10-22T08:25:59.593Z,100141.31
2022-10-22T08:29:02.529Z,100135.34
2022-10-22T08:32:06.265Z,100144.72
2022-10-22T08:35:10.425Z,100144.28
2022-10-22T08:38:14.404Z,100148.25
2022-10-22T08:41:21.738Z,100155.97
2022-10-22T08:44:46.055Z,100165.53
2022-10-22T08:48:06.445Z,100167.03
2022-10-22T08:51:16.258Z,100166.19
2022-10-22T08:54:29.943Z,100168.25
2022-10-22T08:57:52.205Z,100162.56
2022-10-22T09:01:01.123Z,100167.09
2022-10-22T09:04:13.048Z,100164.72
2022-10-22T09:07:16.490Z,100168.72
2022-10-22T09:10:23.601Z,100169.97
2022-10-22T09:13:27.865Z,100176.56
2022-10-22T09:16:38.530Z,100178.59
2022-10-22T09:19:58.459Z,100180.91
2022-10-22T09:23:20.343Z,100188.50
2022-10-22T09:26:23.252Z,100188.22
2022-10-22T09:29:34.708Z,100185.19
2022-10-22T09:32:37.815Z,100186.41
2022-10-22T09:35:48.132Z,100186.31
2022-10-22T09:38:53.517Z,100184.47
2022-10-22T09:41:56.507Z,100187.78
2022-10-22T09:45:01.396Z,100192.44
2022-10-22T09:48:16.376Z,100196.41
2022-10-22T09:51:22.149Z,100204.78
2022-10-22T09:54:27.040Z,100206.38
2022-10-22T09:57:30.483Z,100206.38
2022-10-22T10:00:34.994Z,100208.00
2022-10-22T10:03:37.919Z,100212.66
2022-10-22T10:06:44.163Z,100209.78
2022-10-22T10:09:48.070Z,100213.94
2022-10-22T10:12:58.778Z,100220.91
2022-10-22T10:16:13.990Z,100225.91
2022-10-22T10:19:39.371Z,100224.97
2022-10-22T10:22:51.822Z,100225.19
2022-10-22T10:26:04.807Z,100235.97
2022-10-22T10:29:26.839Z,100235.53
2022-10-22T10:32:51.568Z,100244.09
2022-10-22T10:36:04.367Z,100240.34
2022-10-22T10:39:13.540Z,100246.63
2022-10-22T10:42:28.162Z,100246.34
2022-10-22T10:45:38.909Z,100249.94
2022-10-22T10:48:57.072Z,100248.50
2022-10-22T10:52:10.411Z,100249.84
2022-10-22T10:55:23.683Z,100250.53
2022-10-22T10:58:36.065Z,100243.38
2022-10-22T11:01:49.725Z,100246.09
2022-10-22T11:05:13.924Z,100267.06
2022-10-22T11:08:22.826Z,100264.59
2022-10-22T11:11:34.126Z,100269.34
2022-10-22T11:14:42.812Z,100273.25
2022-10-22T11:17:48.749Z,100280.97
2022-10-22T11:21:10.284Z,100307.09
2022-10-22T11:24:21.546Z,100306.22
2022-10-22T11:27:33.163Z,100320.16
2022-10-22T11:30:37.968Z,100321.50
2022-10-22T11:33:48.771Z,100332.38
2022-10-22T11:36:55.472Z,100337.69
2022-10-22T11:40:02.315Z,100332.75
2022-10-22T11:43:07.683Z,100337.53
2022-10-22T11:46:31.270Z,100333.38
2022-10-22T11:49:44.779Z,100352.00
2022-10-22T11:53:01.387Z,100351.91
2022-10-22T11:56:24.493Z,100354.44
2022-10-22T11:59:42.375Z,100354.84
2022-10-22T12:02:45.989Z,100356.06
2022-10-22T12:06:08.381Z,100359.91
2022-10-22T12:09:13.917Z,100396.53
2022-10-22T12:12:17.279Z,100412.50
2022-10-22T12:15:27.029Z,100434.41
2022-10-22T12:18:41.658Z,100455.69
2022-10-22T12:21:49.541Z,100469.34
2022-10-22T12:24:58.027Z,100464.28
2022-10-22T12:28:01.349Z,100481.06
2022-10-22T12:31:04.527Z,100483.13
2022-10-22T12:34:07.610Z,100472.78
2022-10-22T12:37:12.591Z,100473.53
2022-10-22T12:40:26.901Z,100466.53
2022-10-22T12:43:32.421Z,100471.63
2022-10-22T12:46:36.969Z,100493.69
2022-10-22T12:49:44.207Z,100483.78
2022-10-22T12:52:47.439Z,100477.53
2022-10-22T12:55:55.089Z,100478.69
2022-10-22T12:59:01.389Z,100493.03
2022-10-22T13:02:17.337Z,100495.06
2022-10-22T13:05:27.346Z,100509.41
2022-10-22T13:08:30.279Z,100539.59
2022-10-22T13:11:39.935Z,100573.63
2022-10-22T13:14:44.575Z,100573.31
2022-10-22T13:17:49.552Z,100602.66
2022-10-22T13:20:55.600Z,100586.50
2022-10-22T13:24:01.509Z,100607.59
2022-10-22T13:27:10.270Z,100630.72
2022-10-22T13:30:23.189Z,100613.56
2022-10-22T13:33:31.225Z,100611.09
2022-10-22T13:36:34.647Z,100608.59
2022-10-22T13:39:37.886Z,100629.56
2022-10-22T13:42:42.587Z,100645.19
2022-10-22T13:45:47.995Z,100684.22
2022-10-22T13:48:53.768Z,100673.81
2022-10-22T13:51:56.732Z,100684.88
2022-10-22T13:54:59.914Z,100682.38
2022-10-22T13:58:12.622Z,100692.31
2022-10-22T14:01:22.620Z,100683.56
2022-10-22T14:04:26.355Z,100674.94
2022-10-22T14:07:29.512Z,100694.88
2022-10-22T14:10:32.471Z,100718.09
2022-10-22T14:13:36.754Z,100711.75
2022-10-22T14:16:40.355Z,100692.47
2022-10-22T14:19:45.457Z,100683.06
2022-10-22T14:22:49.821Z,100697.75
2022-10-22T14:25:52.770Z,100700.56
2022-10-22T14:29:09.423Z,100689.31
2022-10-22T14:32:14.967Z,100696.75
2022-10-22T14:35:22.462Z,100690.16
2022-10-22T14:38:25.444Z,100694.78
2022-10-22T14:41:30.038Z,100684.53
2022-10-22T14:44:34.288Z,100670.00
2022-10-22T14:47:37.271Z,100666.50
2022-10-22T14:50:40.234Z,100667.66
2022-10-22T14:53:43.739Z,100659.72
2022-10-22T14:56:46.818Z,100669.09
2022-10-22T14:59:54.768Z,100663.56
2022-10-22T15:03:03.297Z,100665.44
2022-10-22T15:06:08.105Z,100671.19
2022-10-22T15:09:11.171Z,100663.25
2022-10-22T15:12:14.106Z,100665.09
2022-10-22T15:15:22.819Z,100669.16
2022-10-22T15:18:27.793Z,100666.50
2022-10-22T15:21:30.902Z,100662.38
2022-10-22T15:24:34.177Z,100650.31
2022-10-22T15:27:37.626Z,100641.63
2022-10-22T15:30:41.903Z,100622.94
2022-10-22T15:33:45.188Z,100611.97
2022-10-22T15:36:48.484Z,100615.38
2022-10-22T15:39:51.413Z,100603.53
2022-10-22T15:42:54.370Z,100605.34
2022-10-22T15:46:12.112Z,100602.88
2022-10-22T15:49:15.645Z,100604.41
2022-10-22T15:52:18.789Z,100594.84
2022-10-22T15:55:22.243Z,100592.13
2022-10-22T15:58:25.194Z,100583.38
2022-10-22T16:01:29.704Z,100571.63
2022-10-22T16:04:32.625Z,100562.47
2022-10-22T16:07:35.751Z,100551.47
2022-10-22T16:10:39.298Z,100540.19
2022-10-22T16:13:42.284Z,100529.97
2022-10-22T16:16:49.705Z,100533.59
2022-10-22T16:19:53.057Z,100531.69
2022-10-22T16:22:55.996Z,100529.78
2022-10-22T16:26:02.481Z,100531.16
2022-10-22T16:29:07.172Z,100532.84
2022-10-22T16:32:13.206Z,100535.34
2022-10-22T16:35:16.337Z,100537.19
2022-10-22T16:38:19.268Z,100538.28
2022-10-22T16:41:24.903Z,100542.41
2022-10-22T16:44:28.063Z,100537.88
2022-10-22T16:47:32.383Z,100530.69
2022-10-22T16:50:35.391Z,100533.19
2022-10-22T16:53:38.731Z,100538.84
2022-10-22T16:56:42.397Z,100533.41
2022-10-22T16:59:45.386Z,100531.75
2022-10-22T17:02:54.009Z,100540.56
2022-10-22T17:05:59.775Z,100543.59
2022-10-22T17:09:02.802Z,100545.81
2022-10-22T17:12:06.271Z,100547.28
2022-10-22T17:15:10.434Z,100557.06
2022-10-22T17:18:14.887Z,100560.09
2022-10-22T17:21:19.562Z,100570.13
2022-10-22T17:24:22.546Z,100568.50
2022-10-22T17:27:25.572Z,100566.56
2022-10-22T17:30:28.829Z,100569.69
2022-10-22T17:33:33.254Z,100574.41
2022-10-22T17:36:37.126Z,100565.53
2022-10-22T17:39:40.063Z,100583.19
2022-10-22T17:42:43.300Z,100578.44
2022-10-22T17:45:46.545Z,100577.31
2022-10-22T17:48:55.645Z,100576.81
2022-10-22T17:55:08.189Z,100561.53
2022-10-22T17:58:11.182Z,100561.53
2022-10-22T18:01:20.960Z,100561.78
2022-10-22T18:04:25.228Z,100554.88
2022-10-22T18:07:28.153Z,100552.41
2022-10-22T18:10:32.001Z,100554.88
2022-10-22T18:13:35.181Z,100546.06
2022-10-22T18:16:38.114Z,100538.22
2022-10-22T18:19:42.516Z,100542.78
2022-10-22T18:22:46.075Z,100540.59
2022-10-22T18:25:49.054Z,100531.91
2022-10-22T18:28:52.256Z,100522.88
2022-10-22T18:31:55.280Z,100501.19
2022-10-22T18:34:59.604Z,100488.72
2022-10-22T18:38:02.567Z,100485.94
2022-10-22T18:41:07.937Z,100490.22
2022-10-22T18:44:14.977Z,100492.41
2022-10-22T18:47:18.141Z,100491.03
2022-10-22T18:50:22.477Z,100480.97
2022-10-22T18:53:25.645Z,100478.91
2022-10-22T18:56:28.739Z,100477.00
2022-10-22T18:59:32.198Z,100471.06
2022-10-22T19:02:35.173Z,100479.72
2022-10-22T19:05:46.116Z,100479.81
2022-10-22T19:08:51.295Z,100490.41
2022-10-22T19:11:54.546Z,100494.09
2022-10-22T19:14:57.535Z,100497.38
2022-10-22T19:18:00.504Z,100498.97
2022-10-22T19:21:05.729Z,100501.75
2022-10-22T19:24:08.828Z,100509.53
2022-10-22T19:27:11.769Z,100511.72
2022-10-22T19:30:15.115Z,100515.44
2022-10-22T19:33:18.153Z,100524.09
2022-10-22T19:36:25.203Z,100518.44
2022-10-22T19:39:28.459Z,100520.06
2022-10-22T19:42:31.500Z,100521.41
2022-10-22T19:45:34.503Z,100529.63
2022-10-22T19:48:38.555Z,100529.03
2022-10-22T19:51:42.919Z,100530.56
2022-10-22T19:54:45.878Z,100538.66
2022-10-22T19:57:48.818Z,100534.53
2022-10-22T20:00:51.999Z,100537.06
2022-10-22T20:03:55.510Z,100545.75
2022-10-22T20:06:59.790Z,100545.28
2022-10-22T20:10:02.791Z,100550.47
2022-10-22T20:13:05.824Z,100556.13
2022-10-22T20:16:08.876Z,100556.13
2022-10-22T20:19:15.861Z,100548.19
2022-10-22T20:22:20.158Z,100540.66
2022-10-22T20:25:23.161Z,100552.44
2022-10-22T20:28:26.222Z,100550.50
2022-10-22T20:31:30.698Z,100546.47
2022-10-22T20:34:33.621Z,100557.19
2022-10-22T20:37:37.948Z,100560.75
2022-10-22T20:40:41.023Z,100555.28
2022-10-22T20:43:45.488Z,100562.16
2022-10-22T20:46:48.581Z,100560.97
2022-10-22T20:49:51.559Z,100559.75
2022-10-22T20:52:55.816Z,100562.81
2022-10-22T20:56:00.254Z,100557.22
2022-10-22T20:59:08.207Z,100559.75
2022-10-22T21:02:12.263Z,100555.84
2022-10-22T21:05:15.214Z,100545.13
2022-10-22T21:08:19.509Z,100553.66
2022-10-22T21:11:24.351Z,100555.31
2022-10-22T21:14:27.347Z,100555.63
2022-10-22T21:17:30.284Z,100554.28
2022-10-22T21:20:33.220Z,100560.34
2022-10-22T21:23:38.152Z,100562.56
2022-10-22T21:26:43.810Z,100555.72
2022-10-22T21:29:46.735Z,100561.81
2022-10-22T21:32:49.744Z,100564.84
2022-10-22T21:35:53.767Z,100565.69
2022-10-22T21:38:58.159Z,100573.16
2022-10-22T21:42:01.091Z,100585.19
2022-10-22T21:45:06.968Z,100593.56
2022-10-22T21:48:13.581Z,100597.75
2022-10-22T21:51:18.583Z,100612.25
2022-10-22T21:54:22.817Z,100619.56
2022-10-22T21:57:25.793Z,100632.66
2022-10-22T22:00:29.015Z,100635.41
2022-10-22T22:03:31.989Z,100633.06
2022-10-22T22:06:35.341Z,100649.66
2022-10-22T22:09:39.836Z,100659.28
2022-10-22T22:12:43.016Z,100672.56
2022-10-22T22:15:46.236Z,100673.66
2022-10-22T22:18:49.189Z,100680.84
2022-10-22T22:21:52.874Z,100685.94
2022-10-22T22:24:57.183Z,100685.78
2022-10-22T22:28:00.104Z,100689.91
2022-10-22T22:31:12.710Z,100694.72
2022-10-22T22:34:17.761Z,100699.53
2022-10-22T22:37:20.712Z,100696.47
2022-10-22T22:40:24.998Z,100688.16
2022-10-22T22:43:28.067Z,100687.28
2022-10-22T22:46:31.028Z,100690.25
2022-10-22T22:49:35.418Z,100688.56
2022-10-22T22:52:38.633Z,100695.66
2022-10-22T22:55:43.002Z,100700.53
2022-10-22T22:58:46.482Z,100699.88
2022-10-22T23:01:51.072Z,100694.69
2022-10-22T23:04:54.357Z,100684.28
2022-10-22T23:07:57.544Z,100685.94
2022-10-22T23:11:06.629Z,100681.94
2022-10-22T23:14:13.718Z,100675.34
2022-10-22T23:17:17.931Z,100678.72
2022-10-22T23:20:21.300Z,100674.31
2022-10-22T23:23:24.398Z,100673.97
2022-10-22T23:26:31.420Z,100673.38
2022-10-22T23:29:36.862Z,100670.19
2022-10-22T23:32:40.308Z,100667.59
2022-10-22T23:35:43.955Z,100664.50
2022-10-22T23:38:47.180Z,100658.00
2022-10-22T23:41:52.190Z,100651.53
2022-10-22T23:44:55.506Z,100645.09
2022-10-22T23:47:58.405Z,100647.69
2022-10-22T23:51:06.096Z,100646.31
2022-10-22T23:54:13.592Z,100649.66
2022-10-22T23:57:17.928Z,100638.63
